Time;durP1;ratioP1;P1;durP2;ratioP2;P2;SDS_P1;SDS_P2;PMS_P1;PMS_P2;Temp;Humidity;BMP_temperature;BMP_pressure;BME280_temperature;BME280_humidity;BME280_pressure;Samples;Min_cycle;Max_cycle;Signal;HPM_P1;HPM_P2
2020/12/09 00:01:46;;;;;;;7.20;5.10;;;22.10;53.40;;;;;;5074480;28;20958;-69
2020/12/09 00:04:13;;;;;;;7.23;5.57;;;22.10;53.40;;;;;;5073487;28;20170;-68
2020/12/09 00:06:39;;;;;;;7.80;5.63;;;22.10;53.40;;;;;;5074631;28;20167;-67
2020/12/09 00:09:06;;;;;;;6.03;5.30;;;22.10;53.40;;;;;;5074266;28;20464;-69
2020/12/09 00:11:32;;;;;;;6.73;5.90;;;22.10;53.40;;;;;;5074281;28;20497;-69
2020/12/09 00:13:58;;;;;;;5.67;4.93;;;22.10;53.40;;;;;;5074279;28;20409;-68
2020/12/09 00:16:24;;;;;;;6.50;5.90;;;22.00;53.30;;;;;;5074239;28;20644;-68
2020/12/09 00:18:49;;;;;;;6.10;5.20;;;22.10;53.40;;;;;;5074491;28;20435;-68
2020/12/09 00:21:17;;;;;;;6.20;5.43;;;22.00;53.30;;;;;;5073970;28;20452;-69
2020/12/09 00:23:42;;;;;;;5.70;5.20;;;22.10;53.40;;;;;;5074112;28;20194;-69
2020/12/09 00:26:08;;;;;;;4.73;4.33;;;22.00;53.40;;;;;;5074088;28;20876;-69
2020/12/09 00:28:33;;;;;;;6.03;5.47;;;22.00;53.40;;;;;;5074297;28;20174;-69
2020/12/09 00:30:59;;;;;;;6.47;5.67;;;22.00;53.40;;;;;;5073990;28;20197;-69
2020/12/09 00:33:25;;;;;;;5.50;5.00;;;22.00;53.40;;;;;;5073981;28;20220;-69
2020/12/09 00:35:50;;;;;;;5.50;4.97;;;22.00;53.40;;;;;;5073922;28;20170;-68
2020/12/09 00:38:16;;;;;;;6.37;5.73;;;22.00;53.40;;;;;;5073833;28;20178;-69
2020/12/09 00:40:43;;;;;;;5.67;5.10;;;22.00;53.40;;;;;;5073715;28;20194;-69
2020/12/09 00:43:09;;;;;;;5.23;4.73;;;22.00;53.40;;;;;;5073685;28;20560;-68
2020/12/09 00:45:34;;;;;;;5.00;4.53;;;22.00;53.40;;;;;;5073719;28;20469;-69
2020/12/09 00:48:00;;;;;;;5.80;5.30;;;22.00;53.40;;;;;;5073705;28;20483;-68
2020/12/09 00:50:29;;;;;;;5.40;4.90;;;22.00;53.40;;;;;;5073606;28;20172;-69
2020/12/09 00:52:55;;;;;;;5.67;5.17;;;22.00;53.40;;;;;;5073543;28;20661;-69
2020/12/09 00:55:20;;;;;;;4.93;4.43;;;22.00;53.40;;;;;;5073530;28;20424;-68
2020/12/09 00:57:46;;;;;;;6.03;5.40;;;21.90;53.40;;;;;;5073821;28;20404;-68
2020/12/09 01:00:12;;;;;;;4.60;4.27;;;21.90;53.40;;;;;;5073376;28;20170;-68
2020/12/09 01:02:37;;;;;;;6.40;5.30;;;22.00;54.00;;;;;;5073434;28;20669;-69
2020/12/09 01:05:06;;;;;;;6.40;5.40;;;22.00;53.50;;;;;;5072548;28;20162;-69
2020/12/09 01:07:31;;;;;;;5.50;4.90;;;21.90;53.40;;;;;;5073295;28;20175;-69
2020/12/09 01:09:57;;;;;;;4.43;4.03;;;21.90;53.40;;;;;;5073277;28;20936;-68
2020/12/09 01:12:23;;;;;;;5.50;5.00;;;21.90;53.40;;;;;;5073407;28;20213;-68
2020/12/09 01:14:48;;;;;;;6.00;5.40;;;21.90;53.40;;;;;;5073350;28;20645;-69
2020/12/09 01:17:14;;;;;;;5.30;4.80;;;21.90;53.40;;;;;;5073278;28;20166;-69
2020/12/09 01:19:40;;;;;;;4.80;4.40;;;21.90;53.40;;;;;;5073503;28;20163;-69
2020/12/09 01:22:05;;;;;;;5.53;5.03;;;21.90;53.50;;;;;;5073053;28;20202;-69
2020/12/09 01:24:32;;;;;;;5.73;5.13;;;21.90;53.50;;;;;;5073409;28;20506;-69
2020/12/09 01:26:58;;;;;;;5.23;4.73;;;21.90;53.50;;;;;;5073329;28;20888;-69
2020/12/09 01:29:24;;;;;;;5.73;5.13;;;21.90;53.50;;;;;;5073110;28;20489;-69
2020/12/09 01:31:58;;;;;;;5.40;4.90;;;21.90;53.50;;;;;;5073036;28;20309;-69
2020/12/09 01:34:24;;;;;;;5.23;4.83;;;21.90;53.50;;;;;;5073272;28;20388;-69
2020/12/09 01:36:50;;;;;;;5.93;4.80;;;21.80;53.40;;;;;;5073135;28;20818;-68
2020/12/09 01:39:16;;;;;;;5.00;4.50;;;21.80;53.40;;;;;;5073317;28;20251;-69
2020/12/09 01:41:41;;;;;;;5.60;5.10;;;21.90;53.50;;;;;;5073132;28;20895;-68
2020/12/09 01:44:07;;;;;;;5.03;4.53;;;21.90;53.50;;;;;;5073008;28;20257;-69
2020/12/09 01:46:33;;;;;;;4.50;4.10;;;21.90;53.50;;;;;;5072937;28;20169;-69
2020/12/09 01:49:00;;;;;;;5.37;4.87;;;21.80;53.40;;;;;;5072947;28;20241;-69
2020/12/09 01:51:27;;;;;;;4.93;4.53;;;21.80;53.40;;;;;;5072883;28;20178;-69
2020/12/09 01:53:55;;;;;;;4.97;4.43;;;21.90;53.50;;;;;;5071601;28;20502;-69
2020/12/09 01:56:20;;;;;;;6.10;4.90;;;21.90;53.50;;;;;;5073191;28;20774;-69
2020/12/09 01:58:48;;;;;;;6.00;5.03;;;21.80;53.40;;;;;;5072818;28;20409;-69
2020/12/09 02:01:14;;;;;;;5.27;4.60;;;21.90;53.50;;;;;;5072707;28;20630;-69
2020/12/09 02:03:40;;;;;;;5.53;4.90;;;21.90;53.50;;;;;;5072756;28;20437;-68
2020/12/09 02:06:06;;;;;;;6.13;4.83;;;21.90;53.50;;;;;;5073003;28;20171;-69
2020/12/09 02:08:32;;;;;;;5.07;4.57;;;21.90;53.50;;;;;;5071435;28;20193;-68
2020/12/09 02:10:59;;;;;;;5.10;4.43;;;21.90;53.50;;;;;;5072758;28;20393;-69
2020/12/09 02:13:25;;;;;;;5.47;4.70;;;21.90;53.40;;;;;;5072672;28;20427;-69
2020/12/09 02:15:52;;;;;;;4.83;4.23;;;21.90;53.50;;;;;;5073829;28;20502;-69
2020/12/09 02:18:18;;;;;;;5.90;5.30;;;21.90;53.50;;;;;;5075245;28;20468;-69
2020/12/09 02:20:44;;;;;;;5.00;4.50;;;21.90;53.40;;;;;;5076428;28;20443;-69
2020/12/09 02:23:10;;;;;;;5.97;4.40;;;21.90;53.50;;;;;;5075355;28;20514;-69
2020/12/09 02:25:35;;;;;;;5.20;4.70;;;21.90;53.40;;;;;;5076433;28;20428;-69
2020/12/09 02:28:01;;;;;;;5.20;4.70;;;21.90;53.40;;;;;;5076318;28;20166;-68
2020/12/09 02:30:26;;;;;;;5.43;4.43;;;21.90;54.00;;;;;;5076304;28;20220;-69
2020/12/09 02:32:52;;;;;;;6.20;5.60;;;21.90;53.50;;;;;;5076336;28;20699;-69
2020/12/09 02:35:18;;;;;;;5.03;4.53;;;21.90;53.50;;;;;;5076247;28;20163;-69
2020/12/09 02:37:43;;;;;;;6.70;4.53;;;21.80;53.40;;;;;;5076187;28;20536;-69
2020/12/09 02:40:09;;;;;;;5.33;4.80;;;21.90;53.50;;;;;;5076116;28;20167;-69
2020/12/09 02:42:34;;;;;;;4.37;3.90;;;21.90;53.50;;;;;;5075928;28;20260;-69
2020/12/09 02:45:00;;;;;;;4.43;4.03;;;21.80;53.40;;;;;;5076048;28;20170;-69
2020/12/09 02:47:25;;;;;;;4.87;4.40;;;21.80;53.40;;;;;;5076238;28;20513;-69
2020/12/09 02:49:51;;;;;;;6.20;4.23;;;21.80;53.40;;;;;;5076235;28;20178;-69
2020/12/09 02:52:17;;;;;;;4.90;4.40;;;21.90;53.50;;;;;;5076097;28;20273;-68
2020/12/09 02:54:42;;;;;;;4.27;3.87;;;21.80;53.40;;;;;;5075796;28;20167;-69
2020/12/09 02:57:08;;;;;;;5.10;4.60;;;21.80;53.40;;;;;;5075889;28;20202;-69
2020/12/09 02:59:33;;;;;;;4.93;4.43;;;21.80;53.40;;;;;;5076980;28;20537;-69
2020/12/09 03:01:59;;;;;;;4.70;4.30;;;21.80;53.40;;;;;;5075990;28;20202;-68
2020/12/09 03:04:25;;;;;;;4.70;4.30;;;21.80;53.50;;;;;;5075682;28;20182;-69
2020/12/09 03:06:50;;;;;;;4.80;4.40;;;21.80;53.50;;;;;;5075689;28;20652;-69
2020/12/09 03:09:16;;;;;;;5.40;4.53;;;21.80;53.50;;;;;;5075488;28;20186;-69
2020/12/09 03:11:41;;;;;;;4.83;4.40;;;21.80;53.50;;;;;;5075543;28;20287;-70
2020/12/09 03:14:07;;;;;;;4.57;4.07;;;21.80;53.50;;;;;;5075520;28;20262;-69
2020/12/09 03:16:33;;;;;;;4.30;3.90;;;21.80;53.50;;;;;;5075567;28;20167;-69
2020/12/09 03:18:59;;;;;;;4.80;4.40;;;21.80;53.50;;;;;;5075419;28;20540;-69
2020/12/09 03:21:25;;;;;;;5.53;4.90;;;21.80;53.50;;;;;;5075539;28;20645;-68
2020/12/09 03:23:50;;;;;;;4.37;3.97;;;21.80;53.50;;;;;;5075305;28;20443;-69
2020/12/09 03:26:16;;;;;;;5.20;4.40;;;21.80;53.40;;;;;;5073983;28;20175;-68
2020/12/09 03:28:42;;;;;;;4.60;4.20;;;21.80;53.50;;;;;;5074230;28;20647;-69
2020/12/09 03:31:08;;;;;;;4.93;3.90;;;21.80;53.40;;;;;;5075171;28;20644;-68
2020/12/09 03:33:34;;;;;;;4.10;3.70;;;21.80;53.40;;;;;;5075144;28;20408;-69
2020/12/09 03:36:01;;;;;;;4.73;4.23;;;21.80;53.40;;;;;;5075077;28;20443;-69
2020/12/09 03:38:26;;;;;;;4.43;3.80;;;21.80;54.00;;;;;;5075106;28;20412;-69
2020/12/09 03:40:52;;;;;;;4.33;3.93;;;21.80;53.40;;;;;;5074915;28;20444;-69
2020/12/09 03:43:18;;;;;;;4.43;3.77;;;21.80;53.40;;;;;;5074924;28;20186;-69
2020/12/09 03:45:43;;;;;;;3.97;3.67;;;21.80;53.40;;;;;;5074904;28;20284;-69
2020/12/09 03:48:09;;;;;;;4.80;4.07;;;21.80;53.50;;;;;;5074871;28;20640;-68
2020/12/09 03:50:35;;;;;;;5.47;4.30;;;21.80;53.40;;;;;;5074782;28;20170;-69
2020/12/09 03:53:01;;;;;;;5.30;4.13;;;21.80;53.50;;;;;;5074749;28;20425;-69
2020/12/09 03:55:26;;;;;;;4.13;3.73;;;21.80;53.50;;;;;;5074707;28;20251;-68
2020/12/09 03:57:52;;;;;;;4.30;3.90;;;21.80;53.50;;;;;;5074618;28;20182;-69
2020/12/09 04:00:19;;;;;;;4.40;4.00;;;21.80;53.50;;;;;;5074549;28;20163;-69
2020/12/09 04:02:45;;;;;;;4.00;3.70;;;21.80;53.50;;;;;;5074512;28;20699;-69
2020/12/09 04:05:11;;;;;;;4.70;4.27;;;21.80;53.60;;;;;;5074472;28;20454;-69
2020/12/09 04:07:37;;;;;;;4.50;4.10;;;21.80;53.50;;;;;;5074362;28;20911;-69
2020/12/09 04:10:05;;;;;;;4.10;3.70;;;21.80;53.50;;;;;;5073080;28;20624;-69
2020/12/09 04:12:30;;;;;;;5.20;4.33;;;21.80;53.50;;;;;;5074312;28;20425;-69
2020/12/09 04:14:56;;;;;;;4.73;3.93;;;21.70;54.00;;;;;;5074254;28;20511;-69
2020/12/09 04:17:21;;;;;;;4.53;3.40;;;21.70;53.50;;;;;;5074308;28;20197;-69
2020/12/09 04:19:47;;;;;;;4.63;3.67;;;21.70;53.50;;;;;;5074184;28;20177;-69
2020/12/09 04:22:14;;;;;;;4.20;3.80;;;21.80;53.50;;;;;;5073988;28;20209;-69
2020/12/09 04:24:39;;;;;;;4.07;3.70;;;21.70;53.50;;;;;;5074127;28;20201;-69
2020/12/09 04:27:05;;;;;;;4.17;3.77;;;21.70;53.50;;;;;;5074236;28;20428;-68
2020/12/09 04:29:30;;;;;;;3.90;3.53;;;21.70;53.50;;;;;;5074010;28;20641;-69
2020/12/09 04:31:56;;;;;;;4.20;3.80;;;21.70;53.50;;;;;;5073972;28;20193;-69
2020/12/09 04:34:22;;;;;;;4.40;4.00;;;21.70;53.50;;;;;;5074201;28;20641;-69
2020/12/09 04:36:50;;;;;;;3.43;3.10;;;21.80;53.50;;;;;;5073868;28;20178;-68
2020/12/09 04:39:20;;;;;;;4.83;4.00;;;21.70;53.40;;;;;;5073617;28;20175;-68
2020/12/09 04:41:47;;;;;;;4.00;3.60;;;21.80;53.50;;;;;;5073668;28;20467;-68
2020/12/09 04:44:12;;;;;;;4.20;3.80;;;21.70;53.50;;;;;;5072433;28;20417;-68
2020/12/09 04:46:46;;;;;;;4.10;3.70;;;21.70;53.50;;;;;;5073765;28;20216;-68
2020/12/09 04:49:20;;;;;;;3.93;3.60;;;21.80;53.50;;;;;;5071460;28;20236;-68
2020/12/09 04:51:58;;;;;;;4.93;4.53;;;21.70;53.50;;;;;;5072287;28;20882;-68
2020/12/09 04:54:35;;;;;;;4.33;3.30;;;21.70;53.50;;;;;;5073644;28;20418;-68
2020/12/09 04:57:10;;;;;;;4.00;3.57;;;21.70;53.50;;;;;;5072308;28;20412;-68
2020/12/09 04:59:42;;;;;;;4.40;3.80;;;21.70;53.50;;;;;;5072299;28;20415;-68
2020/12/09 05:02:09;;;;;;;5.30;4.80;;;21.70;53.50;;;;;;5073236;28;20996;-68
2020/12/09 05:04:37;;;;;;;4.03;3.63;;;21.70;53.50;;;;;;5072131;28;20416;-69
2020/12/09 05:07:10;;;;;;;4.00;3.60;;;21.70;53.60;;;;;;5073426;28;20413;-69
2020/12/09 05:09:44;;;;;;;3.50;3.20;;;21.70;53.60;;;;;;5073294;28;20420;-68
2020/12/09 05:12:16;;;;;;;4.63;3.93;;;21.70;53.60;;;;;;5073252;28;20428;-68
2020/12/09 05:14:49;;;;;;;3.67;3.23;;;21.70;53.60;;;;;;5073408;28;20400;-69
2020/12/09 05:17:17;;;;;;;4.30;3.30;;;21.70;53.60;;;;;;5073138;28;20420;-69
2020/12/09 05:19:44;;;;;;;3.73;3.43;;;21.60;53.60;;;;;;5073178;28;20408;-69
2020/12/09 05:22:17;;;;;;;3.87;3.40;;;21.60;53.60;;;;;;5074020;28;20934;-69
2020/12/09 05:24:44;;;;;;;4.50;3.47;;;21.60;53.60;;;;;;5073233;28;20397;-69
2020/12/09 05:27:11;;;;;;;4.73;3.77;;;21.60;53.60;;;;;;5073134;28;20400;-69
2020/12/09 05:29:44;;;;;;;4.30;3.80;;;21.60;53.60;;;;;;5073191;28;20950;-69
2020/12/09 05:32:10;;;;;;;3.90;3.50;;;21.60;53.60;;;;;;5073022;28;20436;-69
2020/12/09 05:34:35;;;;;;;3.60;3.30;;;21.60;53.60;;;;;;5073017;28;20546;-68
2020/12/09 05:37:07;;;;;;;4.20;3.80;;;21.60;53.60;;;;;;5072970;28;20308;-69
2020/12/09 05:39:33;;;;;;;3.83;3.53;;;21.60;53.60;;;;;;5071922;28;20597;-69
2020/12/09 05:42:17;;;;;;;3.87;3.00;;;21.60;53.60;;;;;;5073125;28;20543;-69
2020/12/09 05:44:43;;;;;;;3.70;3.30;;;21.60;53.60;;;;;;5073011;28;20396;-69
2020/12/09 05:47:10;;;;;;;3.57;3.23;;;21.60;53.60;;;;;;5072963;28;20443;-68
2020/12/09 05:49:37;;;;;;;3.80;3.50;;;21.60;53.60;;;;;;5072984;28;20495;-68
2020/12/09 05:52:14;;;;;;;3.80;3.50;;;21.60;53.60;;;;;;5075791;28;20428;-68
2020/12/09 05:54:44;;;;;;;4.53;3.53;;;21.70;53.60;;;;;;5077117;28;20756;-68
2020/12/09 05:57:12;;;;;;;4.23;3.57;;;21.70;53.60;;;;;;5075122;28;20416;-68
2020/12/09 05:59:47;;;;;;;3.20;2.90;;;21.70;53.50;;;;;;5076994;28;20899;-68
2020/12/09 06:02:27;;;;;;;3.73;3.43;;;21.70;53.50;;;;;;5076729;28;20981;-67
2020/12/09 06:04:59;;;;;;;4.53;3.77;;;21.70;53.50;;;;;;5076979;28;20424;-67
2020/12/09 06:07:30;;;;;;;4.50;4.10;;;21.70;53.40;;;;;;5076977;28;20458;-68
2020/12/09 06:10:19;;;;;;;3.90;3.50;;;21.70;53.30;;;;;;5076727;28;20447;-68
2020/12/09 06:12:52;;;;;;;5.07;3.60;;;21.80;53.30;;;;;;5076644;28;20566;-68
2020/12/09 06:15:19;;;;;;;4.00;3.63;;;21.70;53.40;;;;;;5076824;28;20416;-67
2020/12/09 06:17:45;;;;;;;4.33;3.40;;;21.70;53.30;;;;;;5076805;28;20417;-67
2020/12/09 06:20:11;;;;;;;3.67;3.37;;;21.70;53.30;;;;;;5076587;28;20414;-68
2020/12/09 06:22:36;;;;;;;3.43;2.90;;;21.80;53.40;;;;;;5076390;28;20236;-68
2020/12/09 06:25:07;;;;;;;3.60;3.30;;;21.80;53.40;;;;;;5076423;28;20205;-67
2020/12/09 06:27:34;;;;;;;4.10;3.57;;;21.80;53.40;;;;;;5076688;28;20592;-68
2020/12/09 06:30:01;;;;;;;4.80;3.93;;;21.80;53.30;;;;;;5076292;28;20412;-67
2020/12/09 06:32:43;;;;;;;4.83;3.70;;;21.80;53.30;;;;;;5076199;28;20432;-68
2020/12/09 06:35:10;;;;;;;4.17;3.77;;;21.80;53.30;;;;;;5076193;28;20397;-69
2020/12/09 06:37:36;;;;;;;4.13;3.73;;;21.80;53.40;;;;;;5076154;28;20475;-68
2020/12/09 06:40:10;;;;;;;5.27;3.30;;;21.80;53.40;;;;;;5076114;28;20416;-68
2020/12/09 06:42:36;;;;;;;3.70;3.27;;;21.80;53.30;;;;;;5075851;28;20213;-68
2020/12/09 06:45:03;;;;;;;4.10;3.67;;;21.80;53.30;;;;;;5076011;28;20490;-69
2020/12/09 06:47:29;;;;;;;3.60;3.30;;;21.80;53.30;;;;;;5076265;28;20415;-68
2020/12/09 06:49:55;;;;;;;3.40;3.10;;;21.80;53.30;;;;;;5076249;28;20771;-68
2020/12/09 06:52:29;;;;;;;3.60;3.30;;;21.80;53.30;;;;;;5075864;28;20220;-68
2020/12/09 06:54:55;;;;;;;4.10;3.70;;;21.80;53.40;;;;;;5076107;28;20182;-68
2020/12/09 06:57:29;;;;;;;3.00;2.80;;;21.80;53.30;;;;;;5075866;28;20980;-68
2020/12/09 07:00:10;;;;;;;4.20;3.80;;;21.80;53.30;;;;;;5075932;28;20182;-73
2020/12/09 07:02:36;;;;;;;3.70;3.40;;;21.80;53.30;;;;;;5075595;28;20463;-69
2020/12/09 07:05:01;;;;;;;3.93;3.57;;;21.80;53.40;;;;;;5075871;28;20473;-69
2020/12/09 07:07:38;;;;;;;3.40;3.10;;;21.80;53.40;;;;;;5075697;28;20478;-70
2020/12/09 07:10:10;;;;;;;3.60;3.30;;;21.90;53.50;;;;;;5075912;28;20763;-69
2020/12/09 07:12:36;;;;;;;5.50;3.83;;;21.80;53.40;;;;;;5075594;28;20468;-69
2020/12/09 07:15:03;;;;;;;5.33;4.03;;;21.80;53.50;;;;;;5075521;28;20431;-68
2020/12/09 07:17:31;;;;;;;4.40;3.47;;;21.80;53.40;;;;;;5075464;28;20409;-69
2020/12/09 07:19:57;;;;;;;3.80;3.50;;;21.90;53.50;;;;;;5075441;28;20412;-70
2020/12/09 07:22:24;;;;;;;5.93;3.80;;;21.90;53.50;;;;;;5075314;28;20466;-68
2020/12/09 07:24:50;;;;;;;4.37;3.97;;;21.90;53.50;;;;;;5075574;28;20174;-69
2020/12/09 07:27:15;;;;;;;5.20;3.87;;;21.90;53.60;;;;;;5075318;28;20409;-70
2020/12/09 07:29:44;;;;;;;3.50;3.23;;;21.90;53.60;;;;;;5075292;28;20179;-69
2020/12/09 07:32:10;;;;;;;4.20;3.73;;;21.90;53.60;;;;;;5075185;28;20730;-70
2020/12/09 07:35:12;;;;;;;3.50;3.20;;;21.90;53.50;;;;;;5073908;28;20431;-68
2020/12/09 07:37:43;;;;;;;4.13;3.23;;;21.90;53.50;;;;;;5043110;28;20435;-66
2020/12/09 07:40:09;;;;;;;6.33;3.17;;;21.90;53.50;;;;;;5075124;28;20446;-68
2020/12/09 07:42:35;;;;;;;3.37;3.07;;;21.90;53.50;;;;;;5073543;28;20460;-67
2020/12/09 07:45:00;;;;;;;4.77;3.77;;;21.90;53.40;;;;;;5074886;28;20412;-66
2020/12/09 07:47:28;;;;;;;3.60;3.30;;;22.00;53.40;;;;;;5075501;28;20155;-67
2020/12/09 07:50:04;;;;;;;3.10;2.80;;;22.00;53.40;;;;;;5074938;28;20678;-67
2020/12/09 07:52:33;;;;;;;3.53;3.23;;;22.00;53.40;;;;;;5074749;28;20447;-68
2020/12/09 07:55:00;;;;;;;4.07;3.70;;;22.10;53.40;;;;;;5075349;28;20793;-69
2020/12/09 07:57:31;;;;;;;3.70;3.20;;;22.00;53.30;;;;;;5074652;28;20436;-67
2020/12/09 07:59:57;;;;;;;3.10;2.87;;;22.10;53.40;;;;;;5074658;28;20922;-66
2020/12/09 08:02:26;;;;;;;3.20;2.90;;;22.10;53.30;;;;;;5074426;28;20829;-67
2020/12/09 08:05:12;;;;;;;3.47;3.17;;;22.10;53.40;;;;;;5074839;28;20412;-67
2020/12/09 08:07:55;;;;;;;4.00;3.70;;;22.10;53.40;;;;;;5074726;28;20534;-67
2020/12/09 08:10:26;;;;;;;5.93;3.70;;;22.10;54.00;;;;;;5074324;28;20416;-70
2020/12/09 08:13:22;;;;;;;3.20;2.90;;;22.10;53.40;;;;;;5073742;28;20433;-67
2020/12/09 08:16:06;;;;;;;3.43;3.13;;;22.10;53.40;;;;;;5072994;28;20771;-67
2020/12/09 08:18:32;;;;;;;3.60;3.27;;;22.10;53.50;;;;;;5074540;28;20447;-67
2020/12/09 08:20:58;;;;;;;4.33;3.87;;;22.10;53.50;;;;;;5074167;28;20459;-67
2020/12/09 08:23:45;;;;;;;5.07;4.10;;;22.10;53.50;;;;;;5074081;28;20433;-67
2020/12/09 08:26:12;;;;;;;4.83;4.00;;;22.10;53.40;;;;;;5072899;28;20237;-67
2020/12/09 08:28:44;;;;;;;4.50;4.10;;;22.10;53.40;;;;;;5074203;28;20409;-68
2020/12/09 08:31:17;;;;;;;4.80;4.23;;;22.10;53.40;;;;;;5074022;28;20393;-67
2020/12/09 08:33:43;;;;;;;4.83;4.07;;;22.10;53.50;;;;;;5073951;28;20412;-68
2020/12/09 08:36:11;;;;;;;4.20;3.80;;;22.10;53.50;;;;;;5073793;28;20971;-68
2020/12/09 08:38:43;;;;;;;5.03;4.53;;;22.10;53.50;;;;;;5073909;28;20211;-65
2020/12/09 08:41:14;;;;;;;6.00;4.53;;;22.10;53.40;;;;;;5074001;28;20536;-68
2020/12/09 08:43:42;;;;;;;10.10;4.80;;;22.20;53.50;;;;;;5073782;28;20390;-68
2020/12/09 08:46:09;;;;;;;5.07;4.20;;;22.20;53.50;;;;;;5072413;28;20425;-68
2020/12/09 08:48:36;;;;;;;9.30;4.23;;;22.10;53.40;;;;;;5072316;28;20417;-68
2020/12/09 08:51:02;;;;;;;6.93;4.13;;;22.20;53.40;;;;;;5073669;28;20413;-69
2020/12/09 08:53:28;;;;;;;5.97;4.87;;;22.20;53.40;;;;;;5073554;28;20796;-69
2020/12/09 08:55:54;;;;;;;5.63;5.03;;;22.20;53.40;;;;;;5073881;28;20463;-69
2020/12/09 08:58:20;;;;;;;11.53;4.73;;;22.20;53.40;;;;;;5073574;28;20170;-67
2020/12/09 09:00:47;;;;;;;5.60;4.70;;;22.20;53.40;;;;;;5073546;28;20416;-69
2020/12/09 09:03:17;;;;;;;7.50;5.00;;;22.20;53.30;;;;;;5073459;28;20527;-69
2020/12/09 09:05:45;;;;;;;5.30;4.40;;;22.20;53.30;;;;;;5073700;28;20986;-69
2020/12/09 09:08:14;;;;;;;8.17;4.57;;;22.20;53.30;;;;;;5073159;28;20925;-68
2020/12/09 09:10:41;;;;;;;6.57;4.90;;;22.20;53.30;;;;;;5073378;28;20389;-68
2020/12/09 09:13:07;;;;;;;6.30;4.80;;;22.20;53.30;;;;;;5073278;28;20425;-68
2020/12/09 09:15:33;;;;;;;5.53;4.87;;;22.20;53.30;;;;;;5073316;28;20772;-68
2020/12/09 09:18:00;;;;;;;6.07;5.13;;;22.20;53.30;;;;;;5073582;28;20198;-68
2020/12/09 09:20:27;;;;;;;7.83;4.73;;;22.20;53.40;;;;;;5073561;28;20404;-68
2020/12/09 09:22:52;;;;;;;9.97;5.00;;;22.20;53.30;;;;;;5073191;28;20490;-68
2020/12/09 09:25:20;;;;;;;6.67;5.23;;;22.30;53.40;;;;;;5072528;28;20915;-67
2020/12/09 09:27:49;;;;;;;6.53;5.00;;;22.30;53.40;;;;;;5072974;28;20163;-68
2020/12/09 09:30:15;;;;;;;6.97;5.30;;;22.30;53.40;;;;;;5073194;28;20412;-68
2020/12/09 09:32:41;;;;;;;7.20;4.87;;;22.30;53.40;;;;;;5073070;28;20477;-68
2020/12/09 09:35:07;;;;;;;8.83;5.40;;;22.30;53.40;;;;;;5073027;28;20412;-68
2020/12/09 09:37:32;;;;;;;7.33;4.53;;;22.30;53.40;;;;;;5072992;28;20181;-67
2020/12/09 09:39:58;;;;;;;6.47;5.10;;;22.30;53.40;;;;;;5073311;28;20687;-68
2020/12/09 09:42:24;;;;;;;6.70;5.23;;;22.30;53.40;;;;;;5072899;28;20217;-67
2020/12/09 09:44:51;;;;;;;6.83;5.00;;;22.30;53.40;;;;;;5072925;28;20174;-67
2020/12/09 09:47:16;;;;;;;12.13;4.90;;;22.30;53.40;;;;;;5073278;28;20209;-68
2020/12/09 09:49:42;;;;;;;6.10;4.90;;;22.30;53.40;;;;;;5071598;28;20448;-67
2020/12/09 09:52:08;;;;;;;10.30;5.30;;;22.30;53.40;;;;;;5071436;28;20251;-68
2020/12/09 09:54:34;;;;;;;6.47;5.80;;;22.30;53.40;;;;;;5072837;28;20182;-68
2020/12/09 09:57:00;;;;;;;6.43;4.90;;;22.30;53.40;;;;;;5072834;28;20466;-67
2020/12/09 09:59:26;;;;;;;5.00;4.50;;;22.30;53.40;;;;;;5073013;28;20409;-67
2020/12/09 10:01:52;;;;;;;8.90;5.50;;;22.30;53.40;;;;;;5072668;28;20206;-68
2020/12/09 10:04:19;;;;;;;8.47;4.90;;;22.30;53.40;;;;;;5072888;28;20516;-67
2020/12/09 10:06:45;;;;;;;4.90;4.40;;;22.30;53.40;;;;;;5073003;28;20942;-67
2020/12/09 10:09:11;;;;;;;7.30;5.23;;;22.30;53.90;;;;;;5072663;28;20436;-68
2020/12/09 10:11:40;;;;;;;6.60;4.73;;;22.30;53.90;;;;;;5072809;28;20198;-67
2020/12/09 10:14:09;;;;;;;6.93;4.43;;;22.40;53.50;;;;;;5072593;28;20223;-66
2020/12/09 10:16:36;;;;;;;7.73;4.60;;;22.40;53.50;;;;;;5072905;28;20432;-67
2020/12/09 10:19:03;;;;;;;5.97;4.37;;;22.30;53.40;;;;;;5072571;28;20416;-66
2020/12/09 10:21:30;;;;;;;6.47;4.50;;;22.40;53.50;;;;;;5072546;28;20455;-67
2020/12/09 10:23:57;;;;;;;10.00;5.57;;;22.40;53.50;;;;;;5072616;28;20412;-67
2020/12/09 10:26:31;;;;;;;9.30;4.83;;;22.40;53.50;;;;;;5072521;28;20419;-67
2020/12/09 10:29:01;;;;;;;5.40;4.60;;;22.40;53.50;;;;;;5072809;28;20385;-67
2020/12/09 10:31:34;;;;;;;6.10;4.37;;;22.40;53.50;;;;;;5072468;28;20415;-67
2020/12/09 10:34:00;;;;;;;6.03;4.60;;;22.40;53.50;;;;;;5053252;28;20432;-67
2020/12/09 10:36:26;;;;;;;9.30;5.60;;;22.40;53.50;;;;;;5072977;28;20408;-67
2020/12/09 10:38:52;;;;;;;9.27;6.07;;;22.40;53.50;;;;;;5076377;28;20919;-67
2020/12/09 10:41:18;;;;;;;7.33;5.40;;;22.40;53.50;;;;;;5075962;28;20201;-67
2020/12/09 10:43:44;;;;;;;5.80;4.57;;;22.40;53.50;;;;;;5076350;28;20879;-68
2020/12/09 10:46:09;;;;;;;6.90;4.10;;;22.40;53.50;;;;;;5076050;28;20166;-68
2020/12/09 10:48:35;;;;;;;6.40;3.90;;;22.40;53.40;;;;;;5074668;28;20632;-67
2020/12/09 10:51:04;;;;;;;6.13;4.57;;;22.40;53.50;;;;;;5075925;28;20593;-67
2020/12/09 10:53:29;;;;;;;5.83;4.50;;;22.40;53.40;;;;;;5075866;28;20293;-67
2020/12/09 10:55:59;;;;;;;5.30;4.60;;;22.40;53.40;;;;;;5075895;28;20504;-67
2020/12/09 10:58:27;;;;;;;8.27;5.17;;;22.40;53.40;;;;;;5075830;28;20175;-67
2020/12/09 11:00:53;;;;;;;5.40;4.20;;;22.40;53.50;;;;;;5074479;28;20824;-67
2020/12/09 11:03:21;;;;;;;7.40;4.23;;;22.40;53.50;;;;;;5075654;28;20428;-67
2020/12/09 11:05:46;;;;;;;5.30;4.00;;;22.40;54.00;;;;;;5075733;28;20421;-68
2020/12/09 11:08:13;;;;;;;7.70;5.27;;;22.40;53.50;;;;;;5075459;28;20878;-66
2020/12/09 11:10:39;;;;;;;4.77;4.03;;;22.40;53.50;;;;;;5075670;28;20775;-67
2020/12/09 11:13:04;;;;;;;6.43;4.03;;;22.40;53.50;;;;;;5075345;28;20432;-67
2020/12/09 11:15:30;;;;;;;5.43;4.60;;;22.40;53.50;;;;;;5075788;28;20178;-67
2020/12/09 11:17:55;;;;;;;4.97;4.07;;;22.40;54.00;;;;;;5075626;28;20533;-67
2020/12/09 11:20:21;;;;;;;6.60;3.80;;;22.40;53.50;;;;;;5074076;28;20171;-66
2020/12/09 11:22:47;;;;;;;6.33;4.27;;;22.40;53.50;;;;;;5075320;28;20213;-67
2020/12/09 11:25:12;;;;;;;4.77;3.97;;;22.40;53.50;;;;;;5075626;28;20307;-68
2020/12/09 11:27:38;;;;;;;6.93;4.03;;;22.40;53.60;;;;;;5075216;28;20170;-67
2020/12/09 11:30:04;;;;;;;5.23;3.77;;;22.40;53.60;;;;;;5073956;28;20186;-68
2020/12/09 11:32:34;;;;;;;7.93;5.47;;;22.40;53.50;;;;;;5075157;28;20251;-68
2020/12/09 11:35:00;;;;;;;5.90;4.13;;;22.40;53.50;;;;;;5075169;28;20421;-66
2020/12/09 11:37:25;;;;;;;5.47;4.03;;;22.40;53.50;;;;;;5075326;28;20812;-68
2020/12/09 11:39:52;;;;;;;4.73;3.93;;;22.40;53.50;;;;;;5075059;28;20420;-67
2020/12/09 11:42:17;;;;;;;6.60;4.37;;;22.40;53.50;;;;;;5075772;28;20244;-67
2020/12/09 11:44:43;;;;;;;5.40;3.70;;;22.40;53.50;;;;;;5074972;28;20413;-67
2020/12/09 11:47:09;;;;;;;4.70;3.87;;;22.40;53.50;;;;;;5074939;28;20611;-67
2020/12/09 11:49:34;;;;;;;4.90;4.40;;;22.40;53.50;;;;;;5074088;28;20170;-67
2020/12/09 11:52:00;;;;;;;4.87;3.80;;;22.40;53.50;;;;;;5074764;28;20428;-67
2020/12/09 11:54:26;;;;;;;4.67;3.93;;;22.40;53.50;;;;;;5073547;28;20175;-66
2020/12/09 11:56:51;;;;;;;6.10;3.60;;;22.40;53.50;;;;;;5074688;28;20596;-67
2020/12/09 11:59:17;;;;;;;5.57;4.37;;;22.40;53.50;;;;;;5074870;28;20239;-67
2020/12/09 12:01:43;;;;;;;4.60;4.20;;;22.40;53.50;;;;;;5074439;28;20213;-67
2020/12/09 12:04:09;;;;;;;5.13;4.27;;;22.40;53.50;;;;;;5074491;28;20418;-66
2020/12/09 12:06:35;;;;;;;5.17;3.70;;;22.40;53.50;;;;;;5074507;28;20170;-67
2020/12/09 12:09:01;;;;;;;6.10;4.80;;;22.40;53.50;;;;;;5074332;28;20427;-67
2020/12/09 12:11:28;;;;;;;5.80;4.50;;;22.40;53.50;;;;;;5074334;28;20174;-67
2020/12/09 12:13:54;;;;;;;4.90;3.43;;;22.40;53.50;;;;;;5074338;28;20177;-67
2020/12/09 12:16:21;;;;;;;4.70;3.73;;;22.40;53.50;;;;;;5074352;28;20461;-67
2020/12/09 12:18:47;;;;;;;4.13;3.63;;;22.40;53.60;;;;;;5074334;28;20729;-67
2020/12/09 12:21:18;;;;;;;5.33;3.90;;;22.40;53.50;;;;;;5074371;28;20456;-68
2020/12/09 12:23:45;;;;;;;7.53;4.07;;;22.40;53.60;;;;;;5074145;28;20424;-67
2020/12/09 12:26:15;;;;;;;4.60;3.80;;;22.40;53.60;;;;;;5074148;28;20750;-68
2020/12/09 12:28:41;;;;;;;4.83;3.83;;;22.40;53.60;;;;;;5074076;28;20409;-67
2020/12/09 12:31:13;;;;;;;5.33;4.40;;;22.30;53.50;;;;;;5074281;28;20761;-68
2020/12/09 12:33:39;;;;;;;5.70;4.53;;;22.40;53.70;;;;;;5074167;28;20502;-70
2020/12/09 12:36:06;;;;;;;4.30;3.90;;;22.40;53.70;;;;;;5073975;28;20495;-68
2020/12/09 12:38:32;;;;;;;5.57;4.00;;;22.30;53.50;;;;;;5072816;28;20470;-66
2020/12/09 12:40:57;;;;;;;4.10;3.60;;;22.30;53.50;;;;;;5073817;28;20437;-69
2020/12/09 12:43:23;;;;;;;3.90;3.50;;;22.30;53.50;;;;;;5073713;28;20470;-68
2020/12/09 12:45:48;;;;;;;6.03;3.90;;;22.40;53.60;;;;;;5073758;28;20629;-68
2020/12/09 12:48:14;;;;;;;4.83;3.70;;;22.30;53.50;;;;;;5073649;28;20220;-66